sensor_id;sensor_type;location;lat;lon;timestamp;temperature;humidity
53152;DHT22;39234;53.158;6.322;2023-04-22T00:02:14;10.40;99.90
53152;DHT22;39234;53.158;6.322;2023-04-22T00:04:42;10.60;99.90
53152;DHT22;39234;53.158;6.322;2023-04-22T00:07:08;10.40;99.90
53152;DHT22;39234;53.158;6.322;2023-04-22T00:09:34;10.50;99.90
53152;DHT22;39234;53.158;6.322;2023-04-22T00:12:00;10.50;99.90
53152;DHT22;39234;53.158;6.322;2023-04-22T00:14:27;10.60;99.90
53152;DHT22;39234;53.158;6.322;2023-04-22T00:16:52;10.40;99.90
53152;DHT22;39234;53.158;6.322;2023-04-22T00:19:18;10.30;99.90
53152;DHT22;39234;53.158;6.322;2023-04-22T00:21:44;10.20;99.90
53152;DHT22;39234;53.158;6.322;2023-04-22T00:24:10;10.10;99.90
53152;DHT22;39234;53.158;6.322;2023-04-22T00:26:35;10.00;99.90
53152;DHT22;39234;53.158;6.322;2023-04-22T00:29:01;9.80;99.90
53152;DHT22;39234;53.158;6.322;2023-04-22T00:31:27;9.90;99.90
53152;DHT22;39234;53.158;6.322;2023-04-22T00:33:52;9.90;99.90
53152;DHT22;39234;53.158;6.322;2023-04-22T00:36:18;9.80;99.90
53152;DHT22;39234;53.158;6.322;2023-04-22T00:38:47;9.50;99.90
53152;DHT22;39234;53.158;6.322;2023-04-22T00:41:14;9.60;99.90
53152;DHT22;39234;53.158;6.322;2023-04-22T00:43:40;9.60;99.90
53152;DHT22;39234;53.158;6.322;2023-04-22T00:46:06;9.40;99.90
53152;DHT22;39234;53.158;6.322;2023-04-22T00:48:31;10.30;99.90
53152;DHT22;39234;53.158;6.322;2023-04-22T00:50:57;9.40;99.90
53152;DHT22;39234;53.158;6.322;2023-04-22T00:53:23;9.10;99.90
53152;DHT22;39234;53.158;6.322;2023-04-22T00:55:48;9.10;99.90
53152;DHT22;39234;53.158;6.322;2023-04-22T00:58:16;9.00;99.90
53152;DHT22;39234;53.158;6.322;2023-04-22T01:00:42;9.90;99.90
53152;DHT22;39234;53.158;6.322;2023-04-22T01:03:08;9.00;99.90
53152;DHT22;39234;53.158;6.322;2023-04-22T01:05:34;8.80;99.90
53152;DHT22;39234;53.158;6.322;2023-04-22T01:08:00;9.00;99.90
53152;DHT22;39234;53.158;6.322;2023-04-22T01:10:26;9.20;99.90
53152;DHT22;39234;53.158;6.322;2023-04-22T01:12:52;8.90;99.90
53152;DHT22;39234;53.158;6.322;2023-04-22T01:15:18;8.80;99.90
53152;DHT22;39234;53.158;6.322;2023-04-22T01:17:44;8.90;99.90
53152;DHT22;39234;53.158;6.322;2023-04-22T01:20:10;8.90;99.90
53152;DHT22;39234;53.158;6.322;2023-04-22T01:22:40;9.00;99.90
53152;DHT22;39234;53.158;6.322;2023-04-22T01:25:08;8.90;99.90
53152;DHT22;39234;53.158;6.322;2023-04-22T01:27:34;8.90;99.90
53152;DHT22;39234;53.158;6.322;2023-04-22T01:30:00;8.70;99.90
53152;DHT22;39234;53.158;6.322;2023-04-22T01:32:26;8.80;99.90
53152;DHT22;39234;53.158;6.322;2023-04-22T01:34:55;8.80;99.90
53152;DHT22;39234;53.158;6.322;2023-04-22T01:37:20;8.80;99.90
53152;DHT22;39234;53.158;6.322;2023-04-22T01:39:47;8.60;99.90
53152;DHT22;39234;53.158;6.322;2023-04-22T01:42:13;8.70;99.90
53152;DHT22;39234;53.158;6.322;2023-04-22T01:44:39;8.70;99.90
53152;DHT22;39234;53.158;6.322;2023-04-22T01:47:05;8.60;99.90
53152;DHT22;39234;53.158;6.322;2023-04-22T01:49:31;9.40;99.90
53152;DHT22;39234;53.158;6.322;2023-04-22T01:51:57;10.00;99.90
53152;DHT22;39234;53.158;6.322;2023-04-22T01:54:23;8.30;99.90
53152;DHT22;39234;53.158;6.322;2023-04-22T01:56:52;8.40;99.90
53152;DHT22;39234;53.158;6.322;2023-04-22T01:59:19;8.50;99.90
53152;DHT22;39234;53.158;6.322;2023-04-22T02:01:45;8.90;99.90
53152;DHT22;39234;53.158;6.322;2023-04-22T02:04:11;8.70;99.90
53152;DHT22;39234;53.158;6.322;2023-04-22T02:06:37;8.50;99.90
53152;DHT22;39234;53.158;6.322;2023-04-22T02:09:02;9.10;99.90
53152;DHT22;39234;53.158;6.322;2023-04-22T02:11:29;8.90;99.90
53152;DHT22;39234;53.158;6.322;2023-04-22T02:13:55;8.80;99.90
53152;DHT22;39234;53.158;6.322;2023-04-22T02:16:21;8.70;99.90
53152;DHT22;39234;53.158;6.322;2023-04-22T02:18:47;8.70;99.90
53152;DHT22;39234;53.158;6.322;2023-04-22T02:21:13;8.60;99.90
53152;DHT22;39234;53.158;6.322;2023-04-22T02:23:39;9.10;99.90
53152;DHT22;39234;53.158;6.322;2023-04-22T02:26:06;8.70;99.90
53152;DHT22;39234;53.158;6.322;2023-04-22T02:28:32;8.60;99.90
53152;DHT22;39234;53.158;6.322;2023-04-22T02:30:58;8.50;99.90
53152;DHT22;39234;53.158;6.322;2023-04-22T02:33:24;8.60;99.90
53152;DHT22;39234;53.158;6.322;2023-04-22T02:35:50;8.30;99.90
53152;DHT22;39234;53.158;6.322;2023-04-22T02:38:16;9.20;99.90
53152;DHT22;39234;53.158;6.322;2023-04-22T02:40:42;8.50;99.90
53152;DHT22;39234;53.158;6.322;2023-04-22T02:43:07;8.30;99.90
53152;DHT22;39234;53.158;6.322;2023-04-22T02:45:33;8.40;99.90
53152;DHT22;39234;53.158;6.322;2023-04-22T02:47:59;8.30;99.90
53152;DHT22;39234;53.158;6.322;2023-04-22T02:50:25;8.30;99.90
53152;DHT22;39234;53.158;6.322;2023-04-22T02:52:50;9.10;99.90
53152;DHT22;39234;53.158;6.322;2023-04-22T02:55:16;8.20;99.90
53152;DHT22;39234;53.158;6.322;2023-04-22T02:57:42;8.10;99.90
53152;DHT22;39234;53.158;6.322;2023-04-22T03:00:08;7.80;99.90
53152;DHT22;39234;53.158;6.322;2023-04-22T03:02:35;7.80;99.90
53152;DHT22;39234;53.158;6.322;2023-04-22T03:05:01;7.70;99.90
53152;DHT22;39234;53.158;6.322;2023-04-22T03:07:27;7.60;99.90
53152;DHT22;39234;53.158;6.322;2023-04-22T03:09:53;7.50;99.90
53152;DHT22;39234;53.158;6.322;2023-04-22T03:12:20;7.50;99.90
53152;DHT22;39234;53.158;6.322;2023-04-22T03:14:46;8.80;99.90
53152;DHT22;39234;53.158;6.322;2023-04-22T03:17:12;8.30;99.90
53152;DHT22;39234;53.158;6.322;2023-04-22T03:19:38;7.10;99.90
53152;DHT22;39234;53.158;6.322;2023-04-22T03:22:03;8.30;99.90
53152;DHT22;39234;53.158;6.322;2023-04-22T03:24:29;7.10;99.90
53152;DHT22;39234;53.158;6.322;2023-04-22T03:26:55;7.10;99.90
53152;DHT22;39234;53.158;6.322;2023-04-22T03:29:20;8.40;99.90
53152;DHT22;39234;53.158;6.322;2023-04-22T03:31:46;7.00;99.90
53152;DHT22;39234;53.158;6.322;2023-04-22T03:34:12;7.80;99.90
53152;DHT22;39234;53.158;6.322;2023-04-22T03:36:38;7.00;99.90
53152;DHT22;39234;53.158;6.322;2023-04-22T03:39:03;7.30;99.90
53152;DHT22;39234;53.158;6.322;2023-04-22T03:41:29;6.90;99.90
53152;DHT22;39234;53.158;6.322;2023-04-22T03:43:55;7.30;99.90
53152;DHT22;39234;53.158;6.322;2023-04-22T03:46:21;7.00;99.90
53152;DHT22;39234;53.158;6.322;2023-04-22T03:48:46;6.90;99.90
53152;DHT22;39234;53.158;6.322;2023-04-22T03:51:12;8.30;99.90
53152;DHT22;39234;53.158;6.322;2023-04-22T03:53:38;6.70;99.90
53152;DHT22;39234;53.158;6.322;2023-04-22T03:56:04;6.80;99.90
53152;DHT22;39234;53.158;6.322;2023-04-22T03:58:29;6.70;99.90
53152;DHT22;39234;53.158;6.322;2023-04-22T04:00:55;6.70;99.90
53152;DHT22;39234;53.158;6.322;2023-04-22T04:03:21;6.70;99.90
53152;DHT22;39234;53.158;6.322;2023-04-22T04:05:47;7.20;99.90
53152;DHT22;39234;53.158;6.322;2023-04-22T04:08:13;7.00;99.90
53152;DHT22;39234;53.158;6.322;2023-04-22T04:10:38;8.40;99.90
53152;DHT22;39234;53.158;6.322;2023-04-22T04:13:04;6.80;99.90
53152;DHT22;39234;53.158;6.322;2023-04-22T04:15:31;6.80;99.90
53152;DHT22;39234;53.158;6.322;2023-04-22T04:17:57;6.70;99.90
53152;DHT22;39234;53.158;6.322;2023-04-22T04:20:25;7.70;99.90
53152;DHT22;39234;53.158;6.322;2023-04-22T04:22:51;6.70;99.90
53152;DHT22;39234;53.158;6.322;2023-04-22T04:25:17;6.70;99.90
53152;DHT22;39234;53.158;6.322;2023-04-22T04:27:45;6.70;99.90
53152;DHT22;39234;53.158;6.322;2023-04-22T04:30:12;6.60;99.90
53152;DHT22;39234;53.158;6.322;2023-04-22T04:32:38;6.50;99.90
53152;DHT22;39234;53.158;6.322;2023-04-22T04:35:05;8.00;99.90
53152;DHT22;39234;53.158;6.322;2023-04-22T04:37:30;6.40;99.90
53152;DHT22;39234;53.158;6.322;2023-04-22T04:39:56;6.40;99.90
53152;DHT22;39234;53.158;6.322;2023-04-22T04:42:24;6.50;99.90
53152;DHT22;39234;53.158;6.322;2023-04-22T04:44:50;8.80;99.90
53152;DHT22;39234;53.158;6.322;2023-04-22T04:47:16;6.70;99.90
53152;DHT22;39234;53.158;6.322;2023-04-22T04:49:42;6.60;99.90
53152;DHT22;39234;53.158;6.322;2023-04-22T04:52:10;6.80;99.90
53152;DHT22;39234;53.158;6.322;2023-04-22T04:54:36;6.70;99.90
53152;DHT22;39234;53.158;6.322;2023-04-22T04:57:03;6.80;99.90
53152;DHT22;39234;53.158;6.322;2023-04-22T04:59:29;6.90;99.90
53152;DHT22;39234;53.158;6.322;2023-04-22T05:01:55;7.20;99.90
53152;DHT22;39234;53.158;6.322;2023-04-22T05:04:20;7.10;99.90
53152;DHT22;39234;53.158;6.322;2023-04-22T05:06:46;7.20;99.90
53152;DHT22;39234;53.158;6.322;2023-04-22T05:09:12;7.40;99.90
53152;DHT22;39234;53.158;6.322;2023-04-22T05:11:38;7.40;99.90
53152;DHT22;39234;53.158;6.322;2023-04-22T05:14:04;7.40;99.90
53152;DHT22;39234;53.158;6.322;2023-04-22T05:16:30;7.60;99.90
53152;DHT22;39234;53.158;6.322;2023-04-22T05:18:56;7.70;99.90
53152;DHT22;39234;53.158;6.322;2023-04-22T05:21:22;7.70;99.90
53152;DHT22;39234;53.158;6.322;2023-04-22T05:23:48;7.90;99.90
53152;DHT22;39234;53.158;6.322;2023-04-22T05:26:14;7.80;99.90
53152;DHT22;39234;53.158;6.322;2023-04-22T05:28:39;7.90;99.90
53152;DHT22;39234;53.158;6.322;2023-04-22T05:31:05;8.80;99.90
53152;DHT22;39234;53.158;6.322;2023-04-22T05:33:31;8.20;99.90
53152;DHT22;39234;53.158;6.322;2023-04-22T05:35:57;8.40;99.90
53152;DHT22;39234;53.158;6.322;2023-04-22T05:38:22;8.30;99.90
53152;DHT22;39234;53.158;6.322;2023-04-22T05:40:48;8.20;99.90
53152;DHT22;39234;53.158;6.322;2023-04-22T05:43:14;8.50;99.90
53152;DHT22;39234;53.158;6.322;2023-04-22T05:45:40;8.70;99.90
53152;DHT22;39234;53.158;6.322;2023-04-22T05:48:06;8.60;99.90
53152;DHT22;39234;53.158;6.322;2023-04-22T05:50:32;8.60;99.90
53152;DHT22;39234;53.158;6.322;2023-04-22T05:52:58;8.80;99.90
53152;DHT22;39234;53.158;6.322;2023-04-22T05:55:23;8.70;99.90
53152;DHT22;39234;53.158;6.322;2023-04-22T05:57:49;8.80;99.90
53152;DHT22;39234;53.158;6.322;2023-04-22T06:00:16;8.90;99.90
53152;DHT22;39234;53.158;6.322;2023-04-22T06:02:42;8.80;99.90
53152;DHT22;39234;53.158;6.322;2023-04-22T06:05:08;9.00;99.90
53152;DHT22;39234;53.158;6.322;2023-04-22T06:07:34;8.90;99.90
53152;DHT22;39234;53.158;6.322;2023-04-22T06:10:00;8.90;99.90
53152;DHT22;39234;53.158;6.322;2023-04-22T06:12:26;8.90;99.90
53152;DHT22;39234;53.158;6.322;2023-04-22T06:14:52;9.00;99.90
53152;DHT22;39234;53.158;6.322;2023-04-22T06:17:17;9.10;99.90
53152;DHT22;39234;53.158;6.322;2023-04-22T06:19:43;9.00;99.90
53152;DHT22;39234;53.158;6.322;2023-04-22T06:22:09;9.10;99.90
53152;DHT22;39234;53.158;6.322;2023-04-22T06:24:35;9.20;99.90
53152;DHT22;39234;53.158;6.322;2023-04-22T06:27:00;9.40;99.90
53152;DHT22;39234;53.158;6.322;2023-04-22T06:29:27;9.60;99.90
53152;DHT22;39234;53.158;6.322;2023-04-22T06:31:53;10.00;99.90
53152;DHT22;39234;53.158;6.322;2023-04-22T06:34:19;10.70;99.90
53152;DHT22;39234;53.158;6.322;2023-04-22T06:36:45;11.00;99.90
53152;DHT22;39234;53.158;6.322;2023-04-22T06:39:11;10.90;99.90
53152;DHT22;39234;53.158;6.322;2023-04-22T06:41:37;11.00;99.90
53152;DHT22;39234;53.158;6.322;2023-04-22T06:44:02;10.90;99.90
53152;DHT22;39234;53.158;6.322;2023-04-22T06:46:28;11.10;99.90
53152;DHT22;39234;53.158;6.322;2023-04-22T06:48:54;11.20;99.90
53152;DHT22;39234;53.158;6.322;2023-04-22T06:51:20;11.20;99.90
53152;DHT22;39234;53.158;6.322;2023-04-22T06:53:45;11.20;99.90
53152;DHT22;39234;53.158;6.322;2023-04-22T06:56:11;11.10;99.90
53152;DHT22;39234;53.158;6.322;2023-04-22T06:58:37;11.10;99.90
53152;DHT22;39234;53.158;6.322;2023-04-22T07:01:03;11.20;99.90
53152;DHT22;39234;53.158;6.322;2023-04-22T07:03:28;11.00;99.90
53152;DHT22;39234;53.158;6.322;2023-04-22T07:05:54;11.30;99.90
53152;DHT22;39234;53.158;6.322;2023-04-22T07:08:20;11.30;99.90
53152;DHT22;39234;53.158;6.322;2023-04-22T07:10:45;11.40;99.90
53152;DHT22;39234;53.158;6.322;2023-04-22T07:13:11;11.50;99.90
53152;DHT22;39234;53.158;6.322;2023-04-22T07:15:37;11.60;99.90
53152;DHT22;39234;53.158;6.322;2023-04-22T07:18:03;11.50;99.90
53152;DHT22;39234;53.158;6.322;2023-04-22T07:20:28;11.50;99.90
53152;DHT22;39234;53.158;6.322;2023-04-22T07:22:54;11.60;99.90
53152;DHT22;39234;53.158;6.322;2023-04-22T07:25:20;11.50;99.90
53152;DHT22;39234;53.158;6.322;2023-04-22T07:27:45;11.80;99.90
53152;DHT22;39234;53.158;6.322;2023-04-22T07:30:11;12.00;99.90
53152;DHT22;39234;53.158;6.322;2023-04-22T07:32:38;11.90;99.90
53152;DHT22;39234;53.158;6.322;2023-04-22T07:35:04;12.00;99.90
53152;DHT22;39234;53.158;6.322;2023-04-22T07:37:30;12.20;99.90
53152;DHT22;39234;53.158;6.322;2023-04-22T07:39:56;12.20;99.90
53152;DHT22;39234;53.158;6.322;2023-04-22T07:42:21;12.10;99.90
53152;DHT22;39234;53.158;6.322;2023-04-22T07:44:47;13.30;99.90
53152;DHT22;39234;53.158;6.322;2023-04-22T07:47:13;12.40;99.90
53152;DHT22;39234;53.158;6.322;2023-04-22T07:49:39;12.60;99.90
53152;DHT22;39234;53.158;6.322;2023-04-22T07:52:05;12.60;99.90
53152;DHT22;39234;53.158;6.322;2023-04-22T07:54:30;12.70;99.90
53152;DHT22;39234;53.158;6.322;2023-04-22T07:56:56;12.90;99.90
53152;DHT22;39234;53.158;6.322;2023-04-22T07:59:23;13.10;99.90
53152;DHT22;39234;53.158;6.322;2023-04-22T08:01:48;13.20;99.90
53152;DHT22;39234;53.158;6.322;2023-04-22T08:04:14;13.40;99.90
53152;DHT22;39234;53.158;6.322;2023-04-22T08:06:40;13.40;99.90
53152;DHT22;39234;53.158;6.322;2023-04-22T08:09:06;13.70;99.90
53152;DHT22;39234;53.158;6.322;2023-04-22T08:11:31;13.70;99.90
53152;DHT22;39234;53.158;6.322;2023-04-22T08:13:57;13.80;99.90
53152;DHT22;39234;53.158;6.322;2023-04-22T08:16:23;13.90;99.90
53152;DHT22;39234;53.158;6.322;2023-04-22T08:18:49;14.10;99.90
53152;DHT22;39234;53.158;6.322;2023-04-22T08:21:16;14.20;99.90
53152;DHT22;39234;53.158;6.322;2023-04-22T08:23:42;14.50;99.90
53152;DHT22;39234;53.158;6.322;2023-04-22T08:26:08;14.70;99.90
53152;DHT22;39234;53.158;6.322;2023-04-22T08:28:36;15.00;99.90
53152;DHT22;39234;53.158;6.322;2023-04-22T08:31:02;15.20;99.90
53152;DHT22;39234;53.158;6.322;2023-04-22T08:33:28;15.80;99.90
53152;DHT22;39234;53.158;6.322;2023-04-22T08:35:53;15.90;99.90
53152;DHT22;39234;53.158;6.322;2023-04-22T08:38:19;16.30;99.90
53152;DHT22;39234;53.158;6.322;2023-04-22T08:40:45;16.40;99.90
53152;DHT22;39234;53.158;6.322;2023-04-22T08:43:12;16.30;99.90
53152;DHT22;39234;53.158;6.322;2023-04-22T08:45:38;16.30;99.90
53152;DHT22;39234;53.158;6.322;2023-04-22T08:48:07;16.50;99.90
53152;DHT22;39234;53.158;6.322;2023-04-22T08:50:36;16.80;99.90
53152;DHT22;39234;53.158;6.322;2023-04-22T08:53:03;16.80;99.90
53152;DHT22;39234;53.158;6.322;2023-04-22T08:55:29;16.90;99.90
53152;DHT22;39234;53.158;6.322;2023-04-22T08:57:56;17.00;99.90
53152;DHT22;39234;53.158;6.322;2023-04-22T09:00:23;17.10;99.90
53152;DHT22;39234;53.158;6.322;2023-04-22T09:02:49;17.50;99.90
53152;DHT22;39234;53.158;6.322;2023-04-22T09:05:16;17.30;99.90
53152;DHT22;39234;53.158;6.322;2023-04-22T09:07:43;17.50;99.90
53152;DHT22;39234;53.158;6.322;2023-04-22T09:10:09;17.80;99.90
53152;DHT22;39234;53.158;6.322;2023-04-22T09:12:36;17.90;99.90
53152;DHT22;39234;53.158;6.322;2023-04-22T09:15:03;18.30;99.90
53152;DHT22;39234;53.158;6.322;2023-04-22T09:17:32;18.60;99.90
53152;DHT22;39234;53.158;6.322;2023-04-22T09:20:00;18.70;99.90
53152;DHT22;39234;53.158;6.322;2023-04-22T09:22:27;18.80;99.90
53152;DHT22;39234;53.158;6.322;2023-04-22T09:24:54;19.20;99.90
53152;DHT22;39234;53.158;6.322;2023-04-22T09:27:23;19.30;99.90
53152;DHT22;39234;53.158;6.322;2023-04-22T09:29:50;19.70;99.90
53152;DHT22;39234;53.158;6.322;2023-04-22T09:32:17;19.40;99.90
53152;DHT22;39234;53.158;6.322;2023-04-22T09:34:53;18.60;99.90
53152;DHT22;39234;53.158;6.322;2023-04-22T09:37:25;18.70;99.90
53152;DHT22;39234;53.158;6.322;2023-04-22T09:39:51;18.60;99.90
53152;DHT22;39234;53.158;6.322;2023-04-22T09:42:17;18.10;99.90
53152;DHT22;39234;53.158;6.322;2023-04-22T09:44:51;18.10;99.90
53152;DHT22;39234;53.158;6.322;2023-04-22T09:47:20;17.80;99.90
53152;DHT22;39234;53.158;6.322;2023-04-22T09:49:48;17.70;99.90
53152;DHT22;39234;53.158;6.322;2023-04-22T09:52:24;17.40;99.90
53152;DHT22;39234;53.158;6.322;2023-04-22T09:54:52;17.60;99.90
53152;DHT22;39234;53.158;6.322;2023-04-22T09:57:19;17.60;99.90
53152;DHT22;39234;53.158;6.322;2023-04-22T09:59:45;17.70;99.90
53152;DHT22;39234;53.158;6.322;2023-04-22T10:02:13;17.80;99.90
53152;DHT22;39234;53.158;6.322;2023-04-22T10:04:39;18.20;99.90
53152;DHT22;39234;53.158;6.322;2023-04-22T10:07:05;18.40;99.90
53152;DHT22;39234;53.158;6.322;2023-04-22T10:09:31;18.50;99.90
53152;DHT22;39234;53.158;6.322;2023-04-22T10:11:57;18.50;99.90
53152;DHT22;39234;53.158;6.322;2023-04-22T10:14:24;19.10;99.90
53152;DHT22;39234;53.158;6.322;2023-04-22T10:16:58;19.10;99.90
53152;DHT22;39234;53.158;6.322;2023-04-22T10:19:25;19.20;99.90
53152;DHT22;39234;53.158;6.322;2023-04-22T10:21:54;19.40;99.90
53152;DHT22;39234;53.158;6.322;2023-04-22T10:24:21;19.30;99.90
53152;DHT22;39234;53.158;6.322;2023-04-22T10:26:57;19.40;99.90
53152;DHT22;39234;53.158;6.322;2023-04-22T10:29:24;19.70;99.90
53152;DHT22;39234;53.158;6.322;2023-04-22T10:32:38;19.70;99.90
53152;DHT22;39234;53.158;6.322;2023-04-22T10:34:39;19.80;99.90
53152;DHT22;39234;53.158;6.322;2023-04-22T10:37:11;19.60;99.90
53152;DHT22;39234;53.158;6.322;2023-04-22T10:39:39;19.40;99.90
53152;DHT22;39234;53.158;6.322;2023-04-22T10:42:11;19.40;99.90
53152;DHT22;39234;53.158;6.322;2023-04-22T10:44:51;19.60;99.90
53152;DHT22;39234;53.158;6.322;2023-04-22T10:47:43;19.80;99.90
53152;DHT22;39234;53.158;6.322;2023-04-22T10:50:23;19.80;99.90
53152;DHT22;39234;53.158;6.322;2023-04-22T10:55:50;20.20;99.90
53152;DHT22;39234;53.158;6.322;2023-04-22T10:58:23;20.10;99.90
53152;DHT22;39234;53.158;6.322;2023-04-22T11:00:52;20.30;99.90
53152;DHT22;39234;53.158;6.322;2023-04-22T11:03:26;20.20;99.90
53152;DHT22;39234;53.158;6.322;2023-04-22T11:06:14;20.20;99.90
53152;DHT22;39234;53.158;6.322;2023-04-22T11:08:45;20.30;99.90
53152;DHT22;39234;53.158;6.322;2023-04-22T11:11:12;20.10;99.90
53152;DHT22;39234;53.158;6.322;2023-04-22T11:13:40;20.40;99.90
53152;DHT22;39234;53.158;6.322;2023-04-22T11:16:08;20.50;99.90
53152;DHT22;39234;53.158;6.322;2023-04-22T11:18:34;20.50;99.90
53152;DHT22;39234;53.158;6.322;2023-04-22T11:21:04;20.80;99.90
53152;DHT22;39234;53.158;6.322;2023-04-22T11:23:34;20.80;99.90
53152;DHT22;39234;53.158;6.322;2023-04-22T11:26:02;21.00;99.90
53152;DHT22;39234;53.158;6.322;2023-04-22T11:28:29;21.00;99.90
53152;DHT22;39234;53.158;6.322;2023-04-22T11:31:07;21.00;99.90
53152;DHT22;39234;53.158;6.322;2023-04-22T11:33:36;21.00;99.90
53152;DHT22;39234;53.158;6.322;2023-04-22T11:36:04;21.00;99.90
53152;DHT22;39234;53.158;6.322;2023-04-22T11:38:34;20.80;99.90
53152;DHT22;39234;53.158;6.322;2023-04-22T11:41:00;20.60;99.90
53152;DHT22;39234;53.158;6.322;2023-04-22T11:43:25;20.90;99.90
53152;DHT22;39234;53.158;6.322;2023-04-22T11:45:54;21.00;99.90
53152;DHT22;39234;53.158;6.322;2023-04-22T11:48:21;21.00;99.90
53152;DHT22;39234;53.158;6.322;2023-04-22T11:50:47;21.00;99.90
53152;DHT22;39234;53.158;6.322;2023-04-22T11:53:18;21.20;99.90
53152;DHT22;39234;53.158;6.322;2023-04-22T11:55:45;21.10;99.90
53152;DHT22;39234;53.158;6.322;2023-04-22T11:58:12;21.00;99.90
53152;DHT22;39234;53.158;6.322;2023-04-22T12:00:46;20.90;99.90
53152;DHT22;39234;53.158;6.322;2023-04-22T12:03:19;20.90;99.90
53152;DHT22;39234;53.158;6.322;2023-04-22T12:08:19;20.60;99.90
53152;DHT22;39234;53.158;6.322;2023-04-22T12:10:57;20.60;99.90
53152;DHT22;39234;53.158;6.322;2023-04-22T12:16:04;20.20;99.90
53152;DHT22;39234;53.158;6.322;2023-04-22T12:18:39;20.10;99.90
53152;DHT22;39234;53.158;6.322;2023-04-22T12:21:09;19.80;99.90
53152;DHT22;39234;53.158;6.322;2023-04-22T12:24:14;19.70;99.90
53152;DHT22;39234;53.158;6.322;2023-04-22T12:26:35;19.40;99.90
53152;DHT22;39234;53.158;6.322;2023-04-22T12:29:02;18.90;99.90
53152;DHT22;39234;53.158;6.322;2023-04-22T12:31:28;19.20;99.90
53152;DHT22;39234;53.158;6.322;2023-04-22T12:33:54;19.30;99.90
53152;DHT22;39234;53.158;6.322;2023-04-22T12:36:20;19.20;99.90
53152;DHT22;39234;53.158;6.322;2023-04-22T12:38:46;19.60;99.90
53152;DHT22;39234;53.158;6.322;2023-04-22T12:41:12;19.90;99.90
53152;DHT22;39234;53.158;6.322;2023-04-22T12:43:38;19.90;99.90
53152;DHT22;39234;53.158;6.322;2023-04-22T12:46:05;19.80;99.90
53152;DHT22;39234;53.158;6.322;2023-04-22T12:48:32;19.80;99.90
53152;DHT22;39234;53.158;6.322;2023-04-22T12:50:58;20.00;99.90
53152;DHT22;39234;53.158;6.322;2023-04-22T12:53:26;19.70;99.90
53152;DHT22;39234;53.158;6.322;2023-04-22T12:55:52;19.60;99.90
53152;DHT22;39234;53.158;6.322;2023-04-22T12:58:18;19.60;99.90
53152;DHT22;39234;53.158;6.322;2023-04-22T13:00:44;19.20;99.90
53152;DHT22;39234;53.158;6.322;2023-04-22T13:03:09;19.10;99.90
53152;DHT22;39234;53.158;6.322;2023-04-22T13:05:36;19.00;99.90
53152;DHT22;39234;53.158;6.322;2023-04-22T13:08:02;19.20;99.90
53152;DHT22;39234;53.158;6.322;2023-04-22T13:10:28;19.20;99.90
53152;DHT22;39234;53.158;6.322;2023-04-22T13:12:54;19.50;99.90
53152;DHT22;39234;53.158;6.322;2023-04-22T13:15:20;19.60;99.90
53152;DHT22;39234;53.158;6.322;2023-04-22T13:17:47;19.70;99.90
53152;DHT22;39234;53.158;6.322;2023-04-22T13:20:13;19.70;99.90
53152;DHT22;39234;53.158;6.322;2023-04-22T13:22:40;19.90;99.90
53152;DHT22;39234;53.158;6.322;2023-04-22T13:25:09;19.70;99.90
53152;DHT22;39234;53.158;6.322;2023-04-22T13:27:35;19.70;99.90
53152;DHT22;39234;53.158;6.322;2023-04-22T13:30:02;19.60;99.90
53152;DHT22;39234;53.158;6.322;2023-04-22T13:32:28;19.30;99.90
53152;DHT22;39234;53.158;6.322;2023-04-22T13:34:54;19.90;99.90
53152;DHT22;39234;53.158;6.322;2023-04-22T13:37:20;19.00;99.90
53152;DHT22;39234;53.158;6.322;2023-04-22T13:39:46;18.70;99.90
53152;DHT22;39234;53.158;6.322;2023-04-22T13:42:13;18.70;99.90
53152;DHT22;39234;53.158;6.322;2023-04-22T13:44:38;18.50;99.90
53152;DHT22;39234;53.158;6.322;2023-04-22T13:47:04;18.50;99.90
53152;DHT22;39234;53.158;6.322;2023-04-22T13:49:30;18.40;99.90
53152;DHT22;39234;53.158;6.322;2023-04-22T13:51:56;18.30;99.90
53152;DHT22;39234;53.158;6.322;2023-04-22T13:54:22;18.20;99.90
53152;DHT22;39234;53.158;6.322;2023-04-22T13:56:48;18.20;99.90
53152;DHT22;39234;53.158;6.322;2023-04-22T13:59:14;18.10;99.90
53152;DHT22;39234;53.158;6.322;2023-04-22T14:01:40;18.00;99.90
53152;DHT22;39234;53.158;6.322;2023-04-22T14:04:06;17.70;99.90
53152;DHT22;39234;53.158;6.322;2023-04-22T14:06:32;17.60;99.90
53152;DHT22;39234;53.158;6.322;2023-04-22T14:08:58;17.40;99.90
53152;DHT22;39234;53.158;6.322;2023-04-22T14:11:24;17.20;99.90
53152;DHT22;39234;53.158;6.322;2023-04-22T14:13:50;17.20;99.90
53152;DHT22;39234;53.158;6.322;2023-04-22T14:16:16;16.80;99.90
53152;DHT22;39234;53.158;6.322;2023-04-22T14:18:44;16.50;99.90
53152;DHT22;39234;53.158;6.322;2023-04-22T14:21:10;16.20;99.90
53152;DHT22;39234;53.158;6.322;2023-04-22T14:23:37;16.10;99.90
53152;DHT22;39234;53.158;6.322;2023-04-22T14:26:09;15.90;99.90
53152;DHT22;39234;53.158;6.322;2023-04-22T14:28:38;15.60;99.90
53152;DHT22;39234;53.158;6.322;2023-04-22T14:31:04;15.20;99.90
53152;DHT22;39234;53.158;6.322;2023-04-22T14:33:30;15.10;99.90
53152;DHT22;39234;53.158;6.322;2023-04-22T14:35:56;15.00;99.90
53152;DHT22;39234;53.158;6.322;2023-04-22T14:38:23;15.30;99.90
53152;DHT22;39234;53.158;6.322;2023-04-22T14:40:49;15.20;99.90
53152;DHT22;39234;53.158;6.322;2023-04-22T14:43:16;15.00;99.90
53152;DHT22;39234;53.158;6.322;2023-04-22T14:45:42;15.00;99.90
53152;DHT22;39234;53.158;6.322;2023-04-22T14:48:08;14.90;99.90
53152;DHT22;39234;53.158;6.322;2023-04-22T14:50:33;14.90;99.90
53152;DHT22;39234;53.158;6.322;2023-04-22T14:52:59;15.10;99.90
53152;DHT22;39234;53.158;6.322;2023-04-22T14:55:25;14.90;99.90
53152;DHT22;39234;53.158;6.322;2023-04-22T14:57:53;14.90;99.90
53152;DHT22;39234;53.158;6.322;2023-04-22T15:00:23;14.90;99.90
53152;DHT22;39234;53.158;6.322;2023-04-22T15:02:49;14.80;99.90
53152;DHT22;39234;53.158;6.322;2023-04-22T15:05:16;14.80;99.90
53152;DHT22;39234;53.158;6.322;2023-04-22T15:07:42;14.60;99.90
53152;DHT22;39234;53.158;6.322;2023-04-22T15:10:08;14.60;99.90
53152;DHT22;39234;53.158;6.322;2023-04-22T15:12:33;14.70;99.90
53152;DHT22;39234;53.158;6.322;2023-04-22T15:14:59;14.60;99.90
53152;DHT22;39234;53.158;6.322;2023-04-22T15:17:25;14.80;99.90
53152;DHT22;39234;53.158;6.322;2023-04-22T15:19:51;14.60;99.90
53152;DHT22;39234;53.158;6.322;2023-04-22T15:22:19;12.80;99.90
53152;DHT22;39234;53.158;6.322;2023-04-22T15:24:45;14.60;99.90
53152;DHT22;39234;53.158;6.322;2023-04-22T15:27:10;14.60;99.90
53152;DHT22;39234;53.158;6.322;2023-04-22T15:29:36;14.70;99.90
53152;DHT22;39234;53.158;6.322;2023-04-22T15:32:02;14.70;99.90
53152;DHT22;39234;53.158;6.322;2023-04-22T15:34:28;14.30;99.90
53152;DHT22;39234;53.158;6.322;2023-04-22T15:36:53;14.20;99.90
53152;DHT22;39234;53.158;6.322;2023-04-22T15:39:19;14.10;99.90
53152;DHT22;39234;53.158;6.322;2023-04-22T15:41:45;13.80;99.90
53152;DHT22;39234;53.158;6.322;2023-04-22T15:44:11;13.90;99.90